River Globe — V7NL8 — position and weather

sailwx.info

Track history (hours):
 
Tides and Currents Weather Stations Pressure Air Temp Water Temp Dewpoint Dewpoint Depression Visibility Wind Speed Wind Dir Waves Ship Positions

River Globe

Last reported at 2018-Jun-16 07:31 UTC. Time now 2018-Jun-20 20:56 UTC.
Position N 01°22' E 103°16'.

Length 190 m; draft 6.7 m.

Type: Cargo ship. MMSI: 538002977.

Date/timePositionNaut miles runAvg speedWind from/ knotsBaromVisibWave heightAir tempDewpointWater temp
2018-Jun-16 07:31N 01°22' E 103°16'512.7
2018-Jun-16 07:06N 01°19' E 103°20'312.1
2018-Jun-16 06:50N 01°17' E 103°23'411.5
2018-Jun-16 06:30N 01°14' E 103°26'611.9
2018-Jun-16 06:00N 01°13' E 103°32'612.0
2018-Jun-16 05:30N 01°11' E 103°37'612.1
2018-Jun-16 05:00N 01°09' E 103°43'612.5
2018-Jun-16 04:30N 01°11' E 103°49'713.7
2018-Jun-16 04:00N 01°14' E 103°55'4 7.4
2018-Jun-16 03:30N 01°17' E 103°57'1 1.3
2018-Jun-16 03:00N 01°17' E 103°57'0 0.0
2018-Jun-16 02:30N 01°17' E 103°57'0 0.0
2018-Jun-16 02:00N 01°17' E 103°57'0 0.0
2018-Jun-16 01:30N 01°17' E 103°57'0 0.0
2018-Jun-16 00:57N 01°17' E 103°57'0 0.0
2018-Jun-16 00:30N 01°17' E 103°57'0 0.1
2018-Jun-16 00:00N 01°17' E 103°57'0 0.0
2018-Jun-15 23:31N 01°17' E 103°57'0 0.0
2018-Jun-15 22:56N 01°17' E 103°57'0 0.1
2018-Jun-15 22:30N 01°17' E 103°57'0 0.0
2018-Jun-15 21:56N 01°17' E 103°57'0 0.0
2018-Jun-15 21:30N 01°17' E 103°57'0 0.0
2018-Jun-15 21:00N 01°17' E 103°57'0 0.0
2018-Jun-15 20:30N 01°17' E 103°57'0 0.0
2018-Jun-15 20:00N 01°17' E 103°57'0 0.0
2018-Jun-15 19:31N 01°17' E 103°57'0 0.0
2018-Jun-15 19:00N 01°17' E 103°57'0 0.0
2018-Jun-15 18:30N 01°17' E 103°57'0 0.0
2018-Jun-15 18:00N 01°17' E 103°57'0 0.0
2018-Jun-15 17:30N 01°17' E 103°57'0 0.0
2018-Jun-15 17:00N 01°17' E 103°57'0 0.0
2018-Jun-15 16:30N 01°17' E 103°57'0 0.0
2018-Jun-15 15:59N 01°17' E 103°57'0 0.2
2018-Jun-15 15:30N 01°17' E 103°57'0 0.2
2018-Jun-15 15:00N 01°17' E 103°57'0 0.1
2018-Jun-15 14:30N 01°17' E 103°57'0 0.1
2018-Jun-15 14:00N 01°17' E 103°57'0 0.1
2018-Jun-15 13:31N 01°17' E 103°57'0 0.0
2018-Jun-15 13:00N 01°17' E 103°57'0 0.0
2018-Jun-15 12:30N 01°17' E 103°57'0 0.0
2018-Jun-15 12:00N 01°17' E 103°57'0 0.0
2018-Jun-15 11:30N 01°17' E 103°57'0 0.0
2018-Jun-15 11:00N 01°17' E 103°57'0 0.0
2018-Jun-15 10:28N 01°17' E 103°57'0 0.0
2018-Jun-15 10:00N 01°17' E 103°57'0 0.1
2018-Jun-15 09:30N 01°17' E 103°57'0 0.1
2018-Jun-15 09:00N 01°17' E 103°57'0 0.9
2018-Jun-15 08:30N 01°17' E 103°57'2 3.7
2018-Jun-15 08:00N 01°15' E 103°57'2 3.8
2018-Jun-15 07:31N 01°13' E 103°56'3 6.1
2018-Jun-15 07:00N 01°12' E 103°53'3 5.4
2018-Jun-15 06:29N 01°11' E 103°51'3 5.7
2018-Jun-15 06:00N 01°10' E 103°48'3 5.7
2018-Jun-15 05:30N 01°08' E 103°46'3 5.1
2018-Jun-15 05:00N 01°06' E 103°44'3 5.6
2018-Jun-15 04:30N 01°04' E 103°42'3 5.9
2018-Jun-15 04:00N 01°02' E 103°40'4 7.2
2018-Jun-15 03:30N 01°04' E 103°37'4 8.0
2018-Jun-15 03:00N 01°06' E 103°33'4 9.0
2018-Jun-15 02:30N 01°09' E 103°30'713.0
2018-Jun-15 01:58N 01°13' E 103°24'714.2
2018-Jun-15 01:30N 01°17' E 103°19'  
Track history (hours):
 
Tides and Currents Weather Stations Pressure Air Temp Water Temp Dewpoint Dewpoint Depression Visibility Wind Speed Wind Dir Waves Ship Positions

River Globe

Last reported at 2018-Jun-16 07:31 UTC. Time now 2018-Jun-20 20:56 UTC.
Position N 01°22' E 103°16'.

Length 190 m; draft 6.7 m.

Type: Cargo ship. MMSI: 538002977.

Date/timePositionNaut miles runAvg speedWind from/ knotsBaromVisibWave heightAir tempDewpointWater temp
2018-Jun-16 07:31N 01°22' E 103°16'512.7
2018-Jun-16 07:06N 01°19' E 103°20'312.1
2018-Jun-16 06:50N 01°17' E 103°23'411.5
2018-Jun-16 06:30N 01°14' E 103°26'611.9
2018-Jun-16 06:00N 01°13' E 103°32'612.0
2018-Jun-16 05:30N 01°11' E 103°37'612.1
2018-Jun-16 05:00N 01°09' E 103°43'612.5
2018-Jun-16 04:30N 01°11' E 103°49'713.7
2018-Jun-16 04:00N 01°14' E 103°55'4 7.4
2018-Jun-16 03:30N 01°17' E 103°57'1 1.3
2018-Jun-16 03:00N 01°17' E 103°57'0 0.0
2018-Jun-16 02:30N 01°17' E 103°57'0 0.0
2018-Jun-16 02:00N 01°17' E 103°57'0 0.0
2018-Jun-16 01:30N 01°17' E 103°57'0 0.0
2018-Jun-16 00:57N 01°17' E 103°57'0 0.0
2018-Jun-16 00:30N 01°17' E 103°57'0 0.1
2018-Jun-16 00:00N 01°17' E 103°57'0 0.0
2018-Jun-15 23:31N 01°17' E 103°57'0 0.0
2018-Jun-15 22:56N 01°17' E 103°57'0 0.1
2018-Jun-15 22:30N 01°17' E 103°57'0 0.0
2018-Jun-15 21:56N 01°17' E 103°57'0 0.0
2018-Jun-15 21:30N 01°17' E 103°57'0 0.0
2018-Jun-15 21:00N 01°17' E 103°57'0 0.0
2018-Jun-15 20:30N 01°17' E 103°57'0 0.0
2018-Jun-15 20:00N 01°17' E 103°57'0 0.0
2018-Jun-15 19:31N 01°17' E 103°57'0 0.0
2018-Jun-15 19:00N 01°17' E 103°57'0 0.0
2018-Jun-15 18:30N 01°17' E 103°57'0 0.0
2018-Jun-15 18:00N 01°17' E 103°57'0 0.0
2018-Jun-15 17:30N 01°17' E 103°57'0 0.0
2018-Jun-15 17:00N 01°17' E 103°57'0 0.0
2018-Jun-15 16:30N 01°17' E 103°57'0 0.0
2018-Jun-15 15:59N 01°17' E 103°57'0 0.2
2018-Jun-15 15:30N 01°17' E 103°57'0 0.2
2018-Jun-15 15:00N 01°17' E 103°57'0 0.1
2018-Jun-15 14:30N 01°17' E 103°57'0 0.1
2018-Jun-15 14:00N 01°17' E 103°57'0 0.1
2018-Jun-15 13:31N 01°17' E 103°57'0 0.0
2018-Jun-15 13:00N 01°17' E 103°57'0 0.0
2018-Jun-15 12:30N 01°17' E 103°57'0 0.0
2018-Jun-15 12:00N 01°17' E 103°57'0 0.0
2018-Jun-15 11:30N 01°17' E 103°57'0 0.0
2018-Jun-15 11:00N 01°17' E 103°57'0 0.0
2018-Jun-15 10:28N 01°17' E 103°57'0 0.0
2018-Jun-15 10:00N 01°17' E 103°57'0 0.1
2018-Jun-15 09:30N 01°17' E 103°57'0 0.1
2018-Jun-15 09:00N 01°17' E 103°57'0 0.9
2018-Jun-15 08:30N 01°17' E 103°57'2 3.7
2018-Jun-15 08:00N 01°15' E 103°57'2 3.8
2018-Jun-15 07:31N 01°13' E 103°56'3 6.1
2018-Jun-15 07:00N 01°12' E 103°53'3 5.4
2018-Jun-15 06:29N 01°11' E 103°51'3 5.7
2018-Jun-15 06:00N 01°10' E 103°48'3 5.7
2018-Jun-15 05:30N 01°08' E 103°46'3 5.1
2018-Jun-15 05:00N 01°06' E 103°44'3 5.6
2018-Jun-15 04:30N 01°04' E 103°42'3 5.9
2018-Jun-15 04:00N 01°02' E 103°40'4 7.2
2018-Jun-15 03:30N 01°04' E 103°37'4 8.0
2018-Jun-15 03:00N 01°06' E 103°33'4 9.0
2018-Jun-15 02:30N 01°09' E 103°30'713.0
2018-Jun-15 01:58N 01°13' E 103°24'714.2
2018-Jun-15 01:30N 01°17' E 103°19'  

Dump ship's entire track history